Etusivu
METAR-TAF:

METAR-TAF

Lentoasemat :

Bella Bella, Brittiläinen Kolumbia, Kanada

Leveyspiiri: 52-11-06N, Pituuspiiri: 128-09-24W, korkeus merenpinnasta: 43 m

Tämänhetkinen sää

Tämä raportti tehtiin 1 tunti ja 0 minuuttia sitten, kello 11.00 UTC
tyyntä
Lämpötila 13°C
Kosteus 100%
Ilmanpaine 1027 hPa
Näkyvyys: 0.8 km
sumua

METAR: CBBC 181100Z AUTO 00000KT 1/2SM FG VV002 13/13 A3032 RMK SLP269

Aika: 05:00 (12:00 UTC)

Sääennuste

Tämä raportti tehtiin 11 tuntia ja 22 minuuttia sitten, kello 00.38 UTC
Ennuste voimassa 18. päivästä klo 01 UTC - 18. päivään klo 05 UTC
Tuuli 3 kn eri suunnista
Näkyvyys: 10 km
Muutamia pilviä 2500 ft:n korkeudessa

TAF: CBBC 180038Z 1801/1805 VRB03KT P6SM FEW025 RMK FCST BASED ON AUTO OBS. NXT FCST WILL BE ISSUED AT 181245Z

Säähavainnot ja -ennusteet yli 4000 lentoasemalta (METAR- ja TAF-raportit).

Käytössä olevat sääasemat on merkitty karttaan keltaisilla ja punaisilla pisteillä.

Aseta hiiri pisteen päälle nähdäksesi sääaseman nimen.

Klikkaa sitten nähdäksesi säähavainnot ja -ennusteet.

Kartan vaihtaminen: klikkaa mustalla rastilla varustettuja vihreitä pisteitä, niin voit zoomata sisään; viivalla varustettua vihreää pistettä, niin voit zoomata ulos tai vihreitä nuolia, niin pääset viereisille kartoille.


METAR-TAF: